createdAt,value
2023-03-02T00:00:31.504Z,17.62
2023-03-02T00:01:44.856Z,17.59
2023-03-02T00:02:48.615Z,17.62
2023-03-02T00:04:01.504Z,17.61
2023-03-02T00:05:08.049Z,17.59
2023-03-02T00:06:21.998Z,17.59
2023-03-02T00:07:35.534Z,17.62
2023-03-02T00:08:39.484Z,17.61
2023-03-02T00:10:02.809Z,17.58
2023-03-02T00:11:05.547Z,17.59
2023-03-02T00:12:09.024Z,17.59
2023-03-02T00:13:21.718Z,17.61
2023-03-02T00:14:55.072Z,17.58
2023-03-02T00:15:38.037Z,17.59
2023-03-02T00:16:50.831Z,17.59
2023-03-02T00:18:04.520Z,17.61
2023-03-02T00:19:17.214Z,17.61
2023-03-02T00:20:20.581Z,17.58
2023-03-02T00:21:33.256Z,17.62
2023-03-02T00:22:47.048Z,17.61
2023-03-02T00:23:49.758Z,17.59
2023-03-02T00:25:03.146Z,17.58
2023-03-02T00:26:15.836Z,17.56
2023-03-02T00:27:29.560Z,17.58
2023-03-02T00:28:41.764Z,17.58
2023-03-02T00:29:45.558Z,17.58
2023-03-02T00:30:58.330Z,17.58
2023-03-02T00:32:02.060Z,17.58
2023-03-02T00:33:14.885Z,17.55
2023-03-02T00:34:28.592Z,17.56
2023-03-02T00:35:31.430Z,17.56
2023-03-02T00:36:45.036Z,17.54
2023-03-02T00:37:57.814Z,17.52
2023-03-02T00:39:01.575Z,17.55
2023-03-02T00:40:14.294Z,17.52
2023-03-02T00:41:28.074Z,17.52
2023-03-02T00:42:30.943Z,17.51
2023-03-02T00:43:44.530Z,17.52
2023-03-02T00:44:57.244Z,17.51
2023-03-02T00:46:10.561Z,17.52
2023-03-02T00:47:13.509Z,17.49
2023-03-02T00:48:27.046Z,17.52
2023-03-02T00:49:39.756Z,17.48
2023-03-02T00:50:43.559Z,17.49
2023-03-02T00:51:56.266Z,17.46
2023-03-02T00:54:26.947Z,17.46
2023-03-02T00:55:29.685Z,17.46
2023-03-02T00:56:43.099Z,17.46
2023-03-02T00:57:45.842Z,17.49
2023-03-02T00:58:59.549Z,17.48
2023-03-02T01:00:12.240Z,17.45
2023-03-02T01:01:17.650Z,17.48
2023-03-02T01:02:31.354Z,17.48
2023-03-02T01:03:35.196Z,17.46
2023-03-02T01:04:47.987Z,17.46
2023-03-02T01:06:01.580Z,17.46
2023-03-02T01:07:14.371Z,17.43
2023-03-02T01:08:18.086Z,17.43
2023-03-02T01:09:30.770Z,17.42
2023-03-02T01:10:44.132Z,17.42
2023-03-02T01:11:46.891Z,17.43
2023-03-02T01:13:00.601Z,17.43
2023-03-02T01:14:13.295Z,17.45
2023-03-02T01:15:36.583Z,17.42
2023-03-02T01:16:29.511Z,17.41
2023-03-02T01:17:43.121Z,17.42
2023-03-02T01:18:55.830Z,17.43
2023-03-02T01:19:59.568Z,17.43
2023-03-02T01:21:12.290Z,17.41
2023-03-02T01:22:25.581Z,17.41
2023-03-02T01:23:28.327Z,17.43
2023-03-02T01:24:42.067Z,17.45
2023-03-02T01:25:54.747Z,17.43
2023-03-02T01:26:58.133Z,17.41
2023-03-02T01:28:10.861Z,17.42
2023-03-02T01:29:24.565Z,17.43
2023-03-02T01:30:37.245Z,17.41
2023-03-02T01:31:40.638Z,17.38
2023-03-02T01:32:53.399Z,17.39
2023-03-02T01:34:07.106Z,17.39
2023-03-02T01:35:09.988Z,17.39
2023-03-02T01:36:23.589Z,17.39
2023-03-02T01:37:36.297Z,17.36
2023-03-02T01:38:39.763Z,17.32
2023-03-02T01:39:52.684Z,17.34
2023-03-02T01:41:06.098Z,17.36
2023-03-02T01:42:18.985Z,17.38
2023-03-02T01:43:22.637Z,17.34
2023-03-02T01:44:35.363Z,17.35
2023-03-02T01:45:49.123Z,17.32
2023-03-02T01:46:51.971Z,17.35
2023-03-02T01:48:05.592Z,17.35
2023-03-02T01:49:18.273Z,17.34
2023-03-02T01:50:21.671Z,17.32
2023-03-02T01:51:34.367Z,17.29
2023-03-02T01:52:48.070Z,17.32
2023-03-02T01:54:00.903Z,17.31
2023-03-02T01:55:04.577Z,17.31
2023-03-02T01:56:17.316Z,17.31
2023-03-02T01:57:30.581Z,17.29
2023-03-02T01:58:33.333Z,17.31
2023-03-02T01:59:47.097Z,17.28
2023-03-02T02:00:59.846Z,17.29
2023-03-02T02:02:03.610Z,17.29
2023-03-02T02:03:16.337Z,17.29
2023-03-02T02:04:30.081Z,17.28
2023-03-02T02:05:32.857Z,17.29
2023-03-02T02:06:47.375Z,17.25
2023-03-02T02:08:02.502Z,17.28
2023-03-02T02:09:06.380Z,17.29
2023-03-02T02:10:19.096Z,17.28
2023-03-02T02:11:33.590Z,17.28
2023-03-02T02:12:36.355Z,17.28
2023-03-02T02:13:50.087Z,17.27
2023-03-02T02:15:02.884Z,17.28
2023-03-02T02:16:06.770Z,17.27
2023-03-02T02:17:39.470Z,17.28
2023-03-02T02:18:33.085Z,17.27
2023-03-02T02:19:35.819Z,17.27
2023-03-02T02:20:49.100Z,17.25
2023-03-02T02:22:01.765Z,17.28
2023-03-02T02:23:15.226Z,17.28
2023-03-02T02:24:17.979Z,17.27
2023-03-02T02:25:32.245Z,17.29
2023-03-02T02:26:45.046Z,17.27
2023-03-02T02:27:48.734Z,17.28
2023-03-02T02:29:01.543Z,17.27
2023-03-02T02:30:15.103Z,17.24
2023-03-02T02:31:18.041Z,17.27
2023-03-02T02:32:41.635Z,17.27
2023-03-02T02:33:44.538Z,17.24
2023-03-02T02:34:48.170Z,17.25
2023-03-02T02:36:00.924Z,17.27
2023-03-02T02:37:15.338Z,17.25
2023-03-02T02:38:18.064Z,17.22
2023-03-02T02:39:31.638Z,17.25
2023-03-02T02:40:44.353Z,17.25
2023-03-02T02:42:07.584Z,17.22
2023-03-02T02:43:00.413Z,17.22
2023-03-02T02:44:14.156Z,17.25
2023-03-02T02:45:27.013Z,17.28
2023-03-02T02:46:30.934Z,17.22
2023-03-02T02:47:43.899Z,17.27
2023-03-02T02:48:57.612Z,17.25
2023-03-02T02:50:00.417Z,17.21
2023-03-02T02:51:14.112Z,17.24
2023-03-02T02:52:26.852Z,17.21
2023-03-02T02:53:30.643Z,17.22
2023-03-02T02:54:43.354Z,17.21
2023-03-02T02:55:57.126Z,17.21
2023-03-02T02:57:00.041Z,17.15
2023-03-02T02:58:13.640Z,17.2
2023-03-02T02:59:26.459Z,17.18
2023-03-02T03:00:30.225Z,17.2
2023-03-02T03:01:43.030Z,17.17
2023-03-02T03:02:56.617Z,17.18
2023-03-02T03:04:09.385Z,17.17
2023-03-02T03:05:13.104Z,17.17
2023-03-02T03:06:25.823Z,17.17
2023-03-02T03:07:39.179Z,17.15
2023-03-02T03:08:42.154Z,17.14
2023-03-02T03:09:55.705Z,17.15
2023-03-02T03:11:08.543Z,17.14
2023-03-02T03:12:12.137Z,17.15
2023-03-02T03:13:25.014Z,17.17
2023-03-02T03:14:39.109Z,17.14
2023-03-02T03:15:41.850Z,17.14
2023-03-02T03:16:55.688Z,17.14
2023-03-02T03:18:08.506Z,17.14
2023-03-02T03:19:22.110Z,17.12
2023-03-02T03:20:24.927Z,17.12
2023-03-02T03:21:38.600Z,17.11
2023-03-02T03:22:51.327Z,17.12
2023-03-02T03:23:55.114Z,17.11
2023-03-02T03:25:07.805Z,17.12
2023-03-02T03:26:21.111Z,17.11
2023-03-02T03:27:23.862Z,17.12
2023-03-02T03:28:37.603Z,17.1
2023-03-02T03:29:50.300Z,17.11
2023-03-02T03:34:29.974Z,17.12
2023-03-02T03:35:42.731Z,17.12
2023-03-02T03:36:46.146Z,17.11
2023-03-02T03:37:58.870Z,17.14
2023-03-02T03:39:12.117Z,17.12
2023-03-02T03:40:14.872Z,17.12
2023-03-02T03:41:28.608Z,17.11
2023-03-02T03:42:41.324Z,17.12
2023-03-02T03:43:54.671Z,17.11
2023-03-02T03:44:57.543Z,17.12
2023-03-02T03:46:11.233Z,17.11
2023-03-02T03:47:24.068Z,17.1
2023-03-02T03:48:27.640Z,17.11
2023-03-02T03:49:40.375Z,17.1
2023-03-02T03:50:54.124Z,17.1
2023-03-02T03:51:56.927Z,17.1
2023-03-02T03:53:10.622Z,17.07
2023-03-02T03:54:23.540Z,17.1
2023-03-02T03:55:27.136Z,17.05
2023-03-02T03:56:39.910Z,17.08
2023-03-02T03:57:53.601Z,17.07
2023-03-02T03:59:06.400Z,17.07
2023-03-02T04:00:10.129Z,17.05
2023-03-02T04:01:22.952Z,17.07
2023-03-02T04:02:36.613Z,17.07
2023-03-02T04:03:40.865Z,17.07
2023-03-02T04:04:54.619Z,17.05
2023-03-02T04:05:57.411Z,17.05
2023-03-02T04:07:11.160Z,17.05
2023-03-02T04:08:23.927Z,17.07
2023-03-02T04:09:37.611Z,17.04
2023-03-02T04:10:40.395Z,17.05
2023-03-02T04:11:54.121Z,17.03
2023-03-02T04:13:06.861Z,17.05
2023-03-02T04:14:10.622Z,17.03
2023-03-02T04:15:23.373Z,17.01
2023-03-02T04:16:37.132Z,17.05
2023-03-02T04:17:39.902Z,17.01
2023-03-02T04:18:53.642Z,17.0
2023-03-02T04:20:06.385Z,17.03
2023-03-02T04:21:20.141Z,17.01
2023-03-02T04:22:22.898Z,17.0
2023-03-02T04:23:36.637Z,17.04
2023-03-02T04:24:49.353Z,17.01
2023-03-02T04:25:53.121Z,17.03
2023-03-02T04:27:06.017Z,16.98
2023-03-02T04:28:19.631Z,17.01
2023-03-02T04:29:22.400Z,17.01
2023-03-02T04:30:36.117Z,17.01
2023-03-02T04:31:48.846Z,17.01
2023-03-02T04:32:52.650Z,17.0
2023-03-02T04:34:05.411Z,16.98
2023-03-02T04:35:18.616Z,16.98
2023-03-02T04:37:54.322Z,16.97
2023-03-02T04:38:47.310Z,17.01
2023-03-02T04:40:00.815Z,16.98
2023-03-02T04:41:03.617Z,16.98
2023-03-02T04:42:17.314Z,16.98
2023-03-02T04:43:30.076Z,16.98
2023-03-02T04:44:33.774Z,16.98
2023-03-02T04:45:46.531Z,17.01
2023-03-02T04:47:00.371Z,16.98
2023-03-02T04:48:03.283Z,16.98
2023-03-02T04:49:16.798Z,16.98
2023-03-02T04:50:29.588Z,17.0
2023-03-02T04:51:43.302Z,16.98
2023-03-02T04:52:46.129Z,16.98
2023-03-02T04:54:13.481Z,16.98
2023-03-02T04:55:06.340Z,16.97
2023-03-02T04:56:20.025Z,16.97
2023-03-02T04:57:32.798Z,16.96
2023-03-02T04:58:36.519Z,16.96
2023-03-02T04:59:49.300Z,16.97
2023-03-02T05:01:03.039Z,16.96
2023-03-02T05:02:05.940Z,16.96
2023-03-02T05:03:19.554Z,16.97
2023-03-02T05:04:32.386Z,16.97
2023-03-02T05:05:36.063Z,16.97
2023-03-02T05:06:48.835Z,16.97
2023-03-02T05:08:02.535Z,16.96
2023-03-02T05:09:05.404Z,16.94
2023-03-02T05:10:19.053Z,16.97
2023-03-02T05:11:32.890Z,16.96
2023-03-02T05:12:36.839Z,16.94
2023-03-02T05:13:50.169Z,16.96
2023-03-02T05:15:05.530Z,16.94
2023-03-02T05:16:08.479Z,16.96
2023-03-02T05:17:22.047Z,16.94
2023-03-02T05:18:24.843Z,16.96
2023-03-02T05:19:38.551Z,16.94
2023-03-02T05:20:51.445Z,16.94
2023-03-02T05:22:05.040Z,16.96
2023-03-02T05:23:07.880Z,16.93
2023-03-02T05:24:21.564Z,16.93
2023-03-02T05:25:44.414Z,16.96
2023-03-02T05:26:38.039Z,16.96
2023-03-02T05:27:50.856Z,16.94
2023-03-02T05:29:04.556Z,16.94
2023-03-02T05:30:07.691Z,16.97
2023-03-02T05:31:21.152Z,16.96
2023-03-02T05:32:35.595Z,16.96
2023-03-02T05:33:39.550Z,16.96
2023-03-02T05:34:52.329Z,16.94
2023-03-02T05:36:06.117Z,16.96
2023-03-02T05:37:09.034Z,16.94
2023-03-02T05:38:22.585Z,16.93
2023-03-02T05:39:35.367Z,16.94
2023-03-02T05:40:39.086Z,16.96
2023-03-02T05:41:51.867Z,16.96
2023-03-02T05:43:05.620Z,16.94
2023-03-02T05:44:08.468Z,16.93
2023-03-02T05:45:32.039Z,16.91
2023-03-02T05:46:35.077Z,16.94
2023-03-02T05:47:39.049Z,16.97
2023-03-02T05:48:51.840Z,16.96
2023-03-02T05:50:05.573Z,16.96
2023-03-02T05:51:08.383Z,16.94
2023-03-02T05:52:22.062Z,16.96
2023-03-02T05:53:34.847Z,16.96
2023-03-02T05:54:38.535Z,16.97
2023-03-02T05:56:00.818Z,17.01
2023-03-02T05:57:04.565Z,17.11
2023-03-02T05:58:17.210Z,17.22
2023-03-02T05:59:20.540Z,17.39
2023-03-02T06:00:33.170Z,17.52
2023-03-02T06:01:46.556Z,17.62
2023-03-02T06:02:49.362Z,17.79
2023-03-02T06:04:03.077Z,17.9
2023-03-02T06:05:25.201Z,18.0
2023-03-02T06:06:28.554Z,18.14
2023-03-02T06:07:31.179Z,18.24
2023-03-02T06:08:44.569Z,18.36
2023-03-02T06:09:58.526Z,18.44
2023-03-02T06:11:02.126Z,18.51
2023-03-02T06:12:14.649Z,18.6
2023-03-02T06:13:28.141Z,18.66
2023-03-02T06:14:31.018Z,18.73
2023-03-02T06:15:44.599Z,18.78
2023-03-02T06:16:57.111Z,18.82
2023-03-02T06:18:01.944Z,18.82
2023-03-02T06:19:14.413Z,18.8
2023-03-02T06:20:27.545Z,18.73
2023-03-02T06:21:30.325Z,18.68
2023-03-02T06:22:43.559Z,18.61
2023-03-02T06:27:38.382Z,18.31
2023-03-02T06:28:31.814Z,18.22
2023-03-02T06:29:46.094Z,18.16
2023-03-02T06:30:48.703Z,18.09
2023-03-02T06:32:02.264Z,18.03
2023-03-02T06:33:14.995Z,18.07
2023-03-02T06:34:29.064Z,18.09
2023-03-02T06:35:31.913Z,18.13
2023-03-02T06:36:45.578Z,18.14
2023-03-02T06:37:58.118Z,18.2
2023-03-02T06:39:01.632Z,18.22
2023-03-02T06:40:14.342Z,18.27
2023-03-02T06:41:28.056Z,18.34
2023-03-02T06:42:30.645Z,18.36
2023-03-02T06:43:44.161Z,18.43
2023-03-02T06:44:56.791Z,18.5
2023-03-02T06:46:00.134Z,18.53
2023-03-02T06:47:12.760Z,18.57
2023-03-02T06:48:35.597Z,18.58
2023-03-02T06:49:38.173Z,18.65
2023-03-02T06:50:41.578Z,18.68
2023-03-02T06:51:54.078Z,18.74
2023-03-02T06:53:07.870Z,18.8
2023-03-02T06:54:10.400Z,18.82
2023-03-02T06:55:23.574Z,18.87
2023-03-02T06:56:36.040Z,18.91
2023-03-02T06:57:49.059Z,18.94
2023-03-02T06:58:51.613Z,19.01
2023-03-02T07:00:05.059Z,19.01
2023-03-02T07:01:17.548Z,19.06
2023-03-02T07:02:21.095Z,19.08
2023-03-02T07:03:33.351Z,19.12
2023-03-02T07:04:46.605Z,19.13
2023-03-02T07:05:49.244Z,19.17
2023-03-02T07:07:02.596Z,19.22
2023-03-02T07:08:15.021Z,19.25
2023-03-02T07:09:28.095Z,19.27
2023-03-02T07:10:30.598Z,19.32
2023-03-02T07:11:45.524Z,19.35
2023-03-02T07:12:48.304Z,19.4
2023-03-02T07:14:01.578Z,19.4
2023-03-02T07:15:13.991Z,19.43
2023-03-02T07:16:27.145Z,19.47
2023-03-02T07:17:29.686Z,19.52
2023-03-02T07:18:43.083Z,19.55
2023-03-02T07:19:56.456Z,19.59
2023-03-02T07:20:59.583Z,19.62
2023-03-02T07:22:11.973Z,19.66
2023-03-02T07:23:25.111Z,19.66
2023-03-02T07:24:57.305Z,19.68
2023-03-02T07:25:41.107Z,19.74
2023-03-02T07:26:53.431Z,19.74
2023-03-02T07:28:06.579Z,19.78
2023-03-02T07:29:09.014Z,19.83
2023-03-02T07:30:22.130Z,19.87
2023-03-02T07:31:44.348Z,19.87
2023-03-02T07:32:47.585Z,19.94
2023-03-02T07:33:50.011Z,19.94
2023-03-02T07:35:03.095Z,19.98
2023-03-02T07:36:15.426Z,20.01
2023-03-02T07:37:19.105Z,20.04
2023-03-02T07:38:31.469Z,20.04
2023-03-02T07:39:44.588Z,20.07
2023-03-02T07:40:47.040Z,20.13
2023-03-02T07:42:00.103Z,20.15
2023-03-02T07:43:12.446Z,20.14
2023-03-02T07:44:25.651Z,20.17
2023-03-02T07:45:28.313Z,20.21
2023-03-02T07:46:41.657Z,20.19
2023-03-02T07:47:54.140Z,20.24
2023-03-02T07:48:57.622Z,20.25
2023-03-02T07:50:09.932Z,20.27
2023-03-02T07:51:23.128Z,20.31
2023-03-02T07:52:55.025Z,20.37
2023-03-02T07:53:38.596Z,20.39
2023-03-02T07:54:50.937Z,20.42
2023-03-02T07:57:20.988Z,20.48
2023-03-02T07:58:23.408Z,20.49
2023-03-02T07:59:26.607Z,20.51
2023-03-02T08:00:40.688Z,20.54
2023-03-02T08:01:55.174Z,20.57
2023-03-02T08:02:57.642Z,20.61
2023-03-02T08:04:11.101Z,20.61
2023-03-02T08:05:23.447Z,20.64
2023-03-02T08:06:26.628Z,20.65
2023-03-02T08:07:39.081Z,20.7
2023-03-02T08:08:52.087Z,20.72
2023-03-02T08:10:04.421Z,20.76
2023-03-02T08:11:07.592Z,20.78
2023-03-02T08:12:19.871Z,20.82
2023-03-02T08:13:33.119Z,20.85
2023-03-02T08:14:37.002Z,20.85
2023-03-02T08:15:50.150Z,20.88
2023-03-02T08:17:02.584Z,20.9
2023-03-02T08:18:05.624Z,20.96
2023-03-02T08:19:17.927Z,20.95
2023-03-02T08:21:00.610Z,21.0
2023-03-02T08:24:00.579Z,21.07
2023-03-02T08:25:12.982Z,21.06
2023-03-02T08:26:17.577Z,21.1
2023-03-02T08:27:30.054Z,21.13
2023-03-02T08:28:43.113Z,21.13
2023-03-02T08:30:05.051Z,21.17
2023-03-02T08:30:58.605Z,21.19
2023-03-02T08:32:11.116Z,21.23
2023-03-02T08:33:14.236Z,21.26
2023-03-02T08:34:26.505Z,21.3
2023-03-02T08:35:40.144Z,21.34
2023-03-02T08:36:42.614Z,21.33
2023-03-02T08:37:55.596Z,21.39
2023-03-02T08:39:07.843Z,21.39
2023-03-02T08:40:31.153Z,21.4
2023-03-02T08:41:23.679Z,21.44
2023-03-02T08:42:36.611Z,21.46
2023-03-02T08:43:48.843Z,21.48
2023-03-02T08:45:12.647Z,21.53
2023-03-02T08:46:05.185Z,21.53
2023-03-02T08:47:18.160Z,21.55
2023-03-02T08:48:30.480Z,21.57
2023-03-02T08:49:33.667Z,21.6
2023-03-02T08:50:45.956Z,21.62
2023-03-02T08:51:59.149Z,21.62
2023-03-02T08:53:11.466Z,21.65
2023-03-02T08:54:14.600Z,21.67
2023-03-02T08:55:26.988Z,21.7
2023-03-02T08:56:40.119Z,21.71
2023-03-02T08:57:42.487Z,21.78
2023-03-02T08:58:55.664Z,21.8
2023-03-02T09:00:07.882Z,21.78
2023-03-02T09:01:40.749Z,21.75
2023-03-02T09:02:23.437Z,21.78
2023-03-02T09:03:35.632Z,21.82
2023-03-02T09:04:49.222Z,21.84
2023-03-02T09:06:01.550Z,21.85
2023-03-02T09:07:04.626Z,21.88
2023-03-02T09:08:17.129Z,21.92
2023-03-02T09:09:30.148Z,21.95
2023-03-02T09:10:32.471Z,21.97
2023-03-02T09:11:45.612Z,21.99
2023-03-02T09:12:57.846Z,22.01
2023-03-02T09:14:01.197Z,22.01
2023-03-02T09:15:13.680Z,22.01
2023-03-02T09:16:27.242Z,22.03
2023-03-02T09:17:29.641Z,22.05
2023-03-02T09:18:42.660Z,22.05
2023-03-02T09:19:54.923Z,22.09
2023-03-02T09:21:08.161Z,22.12
2023-03-02T09:22:10.798Z,22.12
2023-03-02T09:23:23.667Z,22.13
2023-03-02T09:24:35.945Z,22.15
2023-03-02T09:25:39.135Z,22.16
2023-03-02T09:27:01.062Z,22.18
2023-03-02T09:28:14.154Z,22.21
2023-03-02T09:29:16.443Z,22.21
2023-03-02T09:30:20.213Z,22.23
2023-03-02T09:31:32.985Z,22.28
2023-03-02T09:32:46.387Z,22.3
2023-03-02T09:33:48.790Z,22.3
2023-03-02T09:35:02.167Z,22.33
2023-03-02T09:36:14.524Z,22.33
2023-03-02T09:37:17.666Z,22.35
2023-03-02T09:38:29.823Z,22.35
2023-03-02T09:39:42.784Z,22.39
2023-03-02T09:40:55.090Z,22.39
2023-03-02T09:42:07.633Z,22.43
2023-03-02T09:43:09.989Z,22.43
2023-03-02T09:44:23.654Z,22.48
2023-03-02T09:45:26.157Z,22.49
2023-03-02T09:46:39.156Z,22.5
2023-03-02T09:47:51.381Z,22.5
2023-03-02T09:49:04.251Z,22.52
2023-03-02T09:50:06.590Z,22.54
2023-03-02T09:51:19.649Z,22.57
2023-03-02T09:52:31.796Z,22.59
2023-03-02T09:53:34.658Z,22.59
2023-03-02T09:54:46.813Z,22.59
2023-03-02T09:55:59.643Z,22.62
2023-03-02T09:57:01.903Z,22.63
2023-03-02T09:58:15.161Z,22.67
2023-03-02T09:59:27.399Z,22.69
2023-03-02T10:00:40.638Z,22.7
2023-03-02T10:01:42.965Z,22.7
2023-03-02T10:03:00.513Z,22.72
2023-03-02T10:04:05.103Z,22.74
2023-03-02T10:05:18.234Z,22.76
2023-03-02T10:06:20.505Z,22.79
2023-03-02T10:07:33.650Z,22.81
2023-03-02T10:08:45.775Z,22.81
2023-03-02T10:09:58.791Z,22.83
2023-03-02T10:11:01.058Z,22.9
2023-03-02T10:12:14.314Z,22.87
2023-03-02T10:13:28.026Z,22.88
2023-03-02T10:14:31.476Z,22.9
2023-03-02T10:15:45.047Z,22.91
2023-03-02T10:16:58.164Z,22.94
2023-03-02T10:18:01.555Z,22.96
2023-03-02T10:19:16.670Z,22.97
2023-03-02T10:20:18.892Z,22.99
2023-03-02T10:21:31.649Z,23.03
2023-03-02T10:22:43.788Z,23.01
2023-03-02T10:23:56.674Z,23.04
2023-03-02T10:24:58.905Z,23.07
2023-03-02T10:26:11.673Z,23.11
2023-03-02T10:27:23.855Z,23.1
2023-03-02T10:28:36.673Z,23.1
2023-03-02T10:29:38.951Z,23.13
2023-03-02T10:31:02.969Z,23.15
2023-03-02T10:32:17.098Z,23.17
2023-03-02T10:33:10.676Z,23.2
2023-03-02T10:34:22.783Z,23.23
2023-03-02T10:35:25.679Z,23.25
2023-03-02T10:36:38.128Z,23.3
2023-03-02T10:38:00.655Z,23.32
2023-03-02T10:39:02.946Z,23.32
2023-03-02T10:40:06.184Z,23.32
2023-03-02T10:41:18.565Z,23.37
2023-03-02T10:42:31.705Z,23.39
2023-03-02T10:43:34.024Z,23.41
2023-03-02T10:44:48.216Z,23.41
2023-03-02T10:46:00.505Z,23.45
2023-03-02T10:47:13.702Z,23.47
2023-03-02T10:48:25.479Z,23.47
2023-03-02T10:49:28.733Z,23.52
2023-03-02T10:50:40.928Z,23.51
2023-03-02T10:51:44.221Z,23.54
2023-03-02T10:53:00.771Z,23.52
2023-03-02T10:54:05.181Z,23.59
2023-03-02T10:55:17.346Z,23.59
2023-03-02T10:56:32.025Z,23.61
2023-03-02T10:57:34.693Z,23.64
2023-03-02T10:58:47.675Z,23.62
2023-03-02T10:59:59.834Z,23.66
2023-03-02T11:01:02.701Z,23.68
2023-03-02T11:02:14.881Z,23.69
2023-03-02T11:03:27.657Z,23.74
2023-03-02T11:04:30.005Z,23.74
2023-03-02T11:05:43.219Z,23.76
2023-03-02T11:07:14.593Z,23.79
2023-03-02T11:08:07.691Z,23.83
2023-03-02T11:09:09.954Z,23.83
2023-03-02T11:10:22.714Z,23.85
2023-03-02T11:11:35.426Z,23.92
2023-03-02T11:13:07.703Z,23.9
2023-03-02T11:13:50.239Z,23.96
2023-03-02T11:15:02.391Z,23.98
2023-03-02T11:24:01.509Z,23.99
2023-03-02T11:24:04.652Z,24.23
2023-03-02T11:24:17.550Z,24.29
2023-03-02T11:25:29.446Z,24.33
2023-03-02T11:26:42.197Z,24.4
2023-03-02T11:27:54.187Z,24.44
2023-03-02T11:28:57.177Z,24.41
2023-03-02T11:30:09.210Z,24.43
2023-03-02T11:31:22.310Z,24.41
2023-03-02T11:32:24.587Z,24.46
2023-03-02T11:33:37.791Z,24.44
2023-03-02T11:34:49.915Z,24.41
2023-03-02T11:36:03.310Z,24.41
2023-03-02T11:37:05.605Z,24.41
2023-03-02T11:38:18.680Z,24.4
2023-03-02T11:39:30.653Z,24.43
2023-03-02T11:40:33.671Z,24.4
2023-03-02T11:41:45.606Z,24.4
2023-03-02T11:42:58.741Z,24.41
2023-03-02T11:44:00.975Z,24.39
2023-03-02T11:45:13.935Z,24.37
2023-03-02T11:46:26.673Z,24.39
2023-03-02T11:47:39.702Z,24.4
2023-03-02T11:48:41.838Z,24.4
2023-03-02T11:50:14.181Z,24.4
2023-03-02T11:51:06.518Z,24.4
2023-03-02T11:52:08.748Z,24.43
2023-03-02T11:53:21.767Z,24.44
2023-03-02T11:54:34.007Z,24.44
2023-03-02T11:55:46.681Z,24.44
2023-03-02T11:56:48.801Z,24.44
2023-03-02T11:59:13.525Z,24.49
2023-03-02T12:00:26.265Z,24.49
2023-03-02T12:01:28.491Z,24.49
2023-03-02T12:02:41.223Z,24.5
2023-03-02T12:03:53.284Z,24.51
2023-03-02T12:04:56.698Z,24.51
2023-03-02T12:06:08.783Z,24.5
2023-03-02T12:07:21.712Z,24.49
2023-03-02T12:08:33.678Z,24.51
2023-03-02T12:09:36.699Z,24.51
2023-03-02T12:10:48.655Z,24.53
2023-03-02T12:12:01.705Z,24.53
2023-03-02T12:13:03.833Z,24.54
2023-03-02T12:14:16.698Z,24.54
2023-03-02T12:15:28.712Z,24.57
2023-03-02T12:16:41.748Z,24.57
2023-03-02T12:17:44.100Z,24.57
2023-03-02T12:18:57.219Z,24.58
2023-03-02T12:20:10.023Z,24.6
2023-03-02T12:21:13.212Z,24.6
2023-03-02T12:22:25.358Z,24.64
2023-03-02T12:23:58.007Z,24.64
2023-03-02T12:24:50.066Z,24.61
2023-03-02T12:26:12.293Z,24.61
2023-03-02T12:27:04.628Z,24.61
2023-03-02T12:28:17.766Z,24.6
2023-03-02T12:29:20.045Z,24.6
2023-03-02T12:30:33.233Z,24.57
2023-03-02T12:31:45.347Z,24.57
2023-03-02T12:33:08.217Z,24.56
2023-03-02T12:34:00.518Z,24.56
2023-03-02T12:35:13.203Z,24.51
2023-03-02T12:36:25.262Z,24.5
2023-03-02T12:37:38.233Z,24.47
2023-03-02T12:38:40.679Z,24.47
2023-03-02T12:39:53.703Z,24.43
2023-03-02T12:41:05.799Z,24.41
2023-03-02T12:42:08.801Z,24.4
2023-03-02T12:43:21.104Z,24.39
2023-03-02T12:44:34.253Z,24.37
2023-03-02T12:45:36.414Z,24.39
2023-03-02T12:48:15.754Z,24.34
2023-03-02T12:49:09.371Z,24.33
2023-03-02T12:50:22.772Z,24.32
2023-03-02T12:51:25.109Z,24.32
2023-03-02T12:52:38.363Z,24.32
2023-03-02T12:54:09.976Z,24.33
2023-03-02T12:55:03.324Z,24.3
2023-03-02T12:56:05.586Z,24.33
2023-03-02T12:57:18.340Z,24.33
2023-03-02T12:58:50.017Z,24.3
2023-03-02T12:59:43.302Z,24.33
2023-03-02T13:00:45.488Z,24.3
2023-03-02T13:01:58.305Z,24.32
2023-03-02T13:03:29.608Z,24.33
2023-03-02T13:04:12.866Z,24.32
2023-03-02T13:05:24.973Z,24.33
2023-03-02T13:06:37.804Z,24.36
2023-03-02T13:07:49.880Z,24.33
2023-03-02T13:09:12.303Z,24.33
2023-03-02T13:10:04.759Z,24.34
2023-03-02T13:11:17.830Z,24.36
2023-03-02T13:12:19.981Z,24.37
2023-03-02T13:13:32.906Z,24.34
2023-03-02T13:15:04.690Z,24.33
2023-03-02T13:15:57.818Z,24.32
2023-03-02T13:17:00.146Z,24.3
2023-03-02T13:18:12.803Z,24.3
2023-03-02T13:19:24.857Z,24.29
2023-03-02T13:20:37.798Z,24.26
2023-03-02T13:21:40.063Z,24.25
2023-03-02T13:23:02.877Z,24.26
2023-03-02T13:24:24.656Z,24.27
2023-03-02T13:25:08.340Z,24.26
2023-03-02T13:26:20.369Z,24.27
2023-03-02T13:27:33.407Z,24.32
2023-03-02T13:28:45.569Z,24.34
2023-03-02T13:29:48.290Z,24.37
2023-03-02T13:31:10.220Z,24.36
2023-03-02T13:32:52.908Z,24.4
2023-03-02T13:33:15.818Z,24.41
2023-03-02T13:34:28.116Z,24.43
2023-03-02T13:35:40.922Z,24.46
2023-03-02T13:36:53.168Z,24.5
2023-03-02T13:37:56.326Z,24.46
2023-03-02T13:39:08.455Z,24.47
2023-03-02T13:40:21.301Z,24.5
2023-03-02T13:41:23.487Z,24.5
2023-03-02T13:42:36.310Z,24.53
2023-03-02T13:43:48.348Z,24.49
2023-03-02T13:45:01.326Z,24.5
2023-03-02T13:46:03.544Z,24.51
2023-03-02T13:47:16.413Z,24.53
2023-03-02T13:48:28.635Z,24.51
2023-03-02T13:49:42.118Z,24.51
2023-03-02T13:50:44.317Z,24.54
2023-03-02T13:51:57.410Z,24.54
2023-03-02T13:53:09.400Z,24.56
2023-03-02T13:54:12.314Z,24.57
2023-03-02T13:55:24.317Z,24.56
2023-03-02T13:56:37.365Z,24.6
2023-03-02T13:57:50.376Z,24.63
2023-03-02T13:58:53.319Z,24.67
2023-03-02T14:00:05.345Z,24.68
2023-03-02T14:01:18.387Z,24.72
2023-03-02T14:02:20.655Z,24.68
2023-03-02T14:03:33.628Z,24.65
2023-03-02T14:04:45.894Z,24.68
2023-03-02T14:05:48.854Z,24.67
2023-03-02T14:07:00.977Z,24.71
2023-03-02T14:08:13.845Z,24.77
2023-03-02T14:09:25.856Z,24.81
2023-03-02T14:10:28.834Z,24.81
2023-03-02T14:11:40.799Z,24.87
2023-03-02T14:12:53.323Z,24.87
2023-03-02T14:14:05.294Z,24.92
2023-03-02T14:15:08.412Z,24.92
2023-03-02T14:16:20.440Z,24.94
2023-03-02T14:17:33.324Z,24.97
2023-03-02T14:18:35.385Z,24.98
2023-03-02T14:19:48.372Z,24.98
2023-03-02T14:21:00.374Z,25.0
2023-03-02T14:22:13.338Z,24.98
2023-03-02T14:23:15.427Z,25.01
2023-03-02T14:24:28.338Z,25.04
2023-03-02T14:25:40.302Z,25.01
2023-03-02T14:26:52.883Z,25.04
2023-03-02T14:27:55.035Z,25.02
2023-03-02T14:29:07.861Z,25.04
2023-03-02T14:30:19.838Z,25.05
2023-03-02T14:31:22.892Z,25.05
2023-03-02T14:32:34.961Z,25.05
2023-03-02T14:33:47.840Z,25.05
2023-03-02T14:34:59.754Z,25.08
2023-03-02T14:36:02.874Z,25.08
2023-03-02T14:37:14.904Z,25.09
2023-03-02T14:38:27.868Z,25.09
2023-03-02T14:39:30.180Z,25.09
2023-03-02T14:40:43.011Z,25.09
2023-03-02T14:41:55.573Z,25.11
2023-03-02T14:43:08.854Z,25.12
2023-03-02T14:44:10.988Z,25.11
2023-03-02T14:45:23.874Z,25.07
2023-03-02T14:46:45.901Z,25.04
2023-03-02T14:47:38.864Z,24.97
2023-03-02T14:48:50.850Z,24.95
2023-03-02T14:50:14.106Z,24.9
2023-03-02T14:51:06.425Z,24.88
2023-03-02T14:52:19.391Z,24.83
2023-03-02T14:53:41.234Z,24.8
2023-03-02T14:54:53.887Z,24.77
2023-03-02T14:56:15.562Z,24.72
2023-03-02T14:56:58.856Z,24.68
2023-03-02T14:58:10.898Z,24.68
2023-03-02T14:59:23.881Z,24.68
2023-03-02T15:00:25.993Z,24.63
2023-03-02T15:01:38.987Z,24.63
2023-03-02T15:02:51.233Z,24.6
2023-03-02T15:03:54.422Z,24.56
2023-03-02T15:05:06.528Z,24.53
2023-03-02T15:06:19.411Z,24.51
2023-03-02T15:08:38.195Z,24.47
2023-03-02T15:09:50.236Z,24.46
2023-03-02T15:10:53.340Z,24.43
2023-03-02T15:12:05.420Z,24.39
2023-03-02T15:13:18.402Z,24.36
2023-03-02T15:14:20.636Z,24.36
2023-03-02T15:15:33.376Z,24.36
2023-03-02T15:16:45.510Z,24.34
2023-03-02T15:17:58.400Z,24.36
2023-03-02T15:19:00.867Z,24.34
2023-03-02T15:20:13.867Z,24.36
2023-03-02T15:21:25.962Z,24.37
2023-03-02T15:22:28.848Z,24.37
2023-03-02T15:23:40.941Z,24.36
2023-03-02T15:24:53.874Z,24.39
2023-03-02T15:26:05.897Z,24.37